Tiptree, United Kingdom
Current Conditions -  °F | °C
As of 5:50 AM on Thursday 29 Jan 2015 (Local Time) from EGMC Reporting Station
Clear Clear  
Wind Chill: -4°   Ceiling: Unl
Heat Index:   Visibility: 6mi
Dew Point: -2°   Wind: 17mph
Humidity: 75%   Direction: 240°WSW
Pressure: 29.26"   Gusts: NA
Location:  51.81°N, 0.75°E
Report Text: EGMC 290550Z 24015KT CAVOK 02/M02 Q0991
Loading
Personal Weather Stations






























Interactive Weather Map New forecast layout! Learn more

10-Day Weather Forecast

Advertisements
Track Severe Weather on mobile